ADDS METAR Data INFO
IDs: Format: Raw Decoded Include TAF

Data at: 0948 UTC 25 Jun 2018

KAHQ 250935Z AUTO 08006KT 10SM CLR 19/18 A2992 RMK AO2 T01910176
KAHQ 250915Z AUTO 07007KT 10SM SCT022 SCT110 19/18 A2992 RMK AO2 T01930175
KAHQ 250855Z AUTO 07007KT 10SM BKN020 20/17 A2993 RMK AO2 T01970174
KAHQ 250835Z AUTO 08008KT 10SM SCT020 SCT025 20/17 A2995 RMK AO2 T02000172
KAHQ 250815Z AUTO 08007KT 10SM CLR 20/18 A2995 RMK AO2 T02000181
KAHQ 250755Z AUTO 07009KT 10SM CLR 20/18 A2994 RMK AO2 T02010180
KAHQ 250735Z AUTO 06010KT 10SM SCT110 21/18 A2992 RMK AO2 T02050183
KAHQ 250715Z AUTO 06010KT 10SM SCT020 SCT075 OVC100 21/19 A2995 RMK AO2 T02110185
KAHQ 250655Z AUTO 05007KT 10SM SCT022 SCT075 OVC100 21/18 A2996 RMK AO2 T02130184
KAHQ 250635Z AUTO 02008KT 10SM SCT075 BKN110 21/19 A2996 RMK AO2 T02060188
KAHQ 250615Z AUTO 08004KT 10SM SCT120 21/19 A2993 RMK AO2 T02060185
KAHQ 250555Z AUTO 10007KT 10SM CLR 21/19 A2992 RMK AO2 T02100185 10282 20210 403040170
KAHQ 250535Z AUTO 13007KT 10SM CLR 21/19 A2993 RMK AO2 T02120185
KAHQ 250515Z AUTO 14010KT 10SM CLR 22/19 A2993 RMK AO2 T02150187
KAHQ 250455Z AUTO 13007G14KT 10SM SCT120 22/19 A2994 RMK AO2 T02150188
KAHQ 250435Z AUTO 13007KT 10SM SCT120 22/19 A2995 RMK AO2 T02170188
KAHQ 250415Z AUTO 12011KT 10SM SCT110 22/19 A2994 RMK AO2 T02200189
KAHQ 250355Z AUTO 13007KT 10SM OVC110 22/19 A2995 RMK AO2 T02240193
KAHQ 250335Z AUTO 12007KT 10SM SCT110 23/20 A2994 RMK AO2 T02260196
KAHQ 250315Z AUTO 12010G16KT 10SM SCT080 SCT120 23/20 A2993 RMK AO2 T02320197
KAHQ 250255Z AUTO 16005KT 10SM BKN085 BKN090 24/20 A2992 RMK AO2 T02350200
KAHQ 250235Z AUTO 14003KT 10SM SCT085 BKN120 24/19 A2991 RMK AO2 T02360193
KAHQ 250215Z AUTO 12004KT 10SM SCT085 SCT120 24/19 A2990 RMK AO2 T02350192
KAHQ 250155Z AUTO 14003KT 10SM SCT085 24/19 A2988 RMK AO2 T02400187
KAHQ 250135Z AUTO 16006KT 10SM CLR 25/18 A2988 RMK AO2 T02460183
KAHQ 250115Z AUTO 15007KT 10SM CLR 25/19 A2988 RMK AO2 T02500190
KAHQ 250055Z AUTO 15007KT 10SM CLR 25/19 A2986 RMK AO2 T02530187
KAHQ 250035Z AUTO 16007KT 10SM CLR 26/19 A2985 RMK AO2 T02600187
KAHQ 250015Z AUTO 16012KT 10SM CLR 27/19 A2984 RMK AO2 T02730191
KAHQ 242355Z AUTO 15010G18KT 10SM CLR 28/21 A2983 RMK AO2 T02810209 10304 20281
KAHQ 242335Z AUTO 15013G21KT 10SM CLR 28/20 A2983 RMK AO2 T02830201
KAHQ 242315Z AUTO 16013KT 10SM CLR 29/20 A2983 RMK AO2 T02930199
KAHQ 242255Z AUTO 16011G16KT 10SM CLR 30/20 A2983 RMK AO2 T02960199
KAHQ 242235Z AUTO 16012KT 10SM SCT042 30/20 A2983 RMK AO2 T03000202
KAHQ 242215Z AUTO 15012KT 10SM SCT042 30/21 A2984 RMK AO2 T02990206
KAHQ 242155Z AUTO 17010G14KT 10SM CLR 30/21 A2983 RMK AO2 T03020205
KAHQ 242135Z AUTO 16009KT 10SM CLR 30/21 A2983 RMK AO2 T03010213
KAHQ 242115Z AUTO 15012G16KT 10SM CLR 30/21 A2982 RMK AO2 T03000209
KAHQ 242055Z AUTO 16012KT 10SM CLR 30/21 A2983 RMK AO2 T02990214
KAHQ 242035Z AUTO 16010KT 10SM CLR 29/22 A2983 RMK AO2 T02930218
KAHQ 242015Z AUTO 14011G18KT 10SM CLR 29/21 A2984 RMK AO2 T02940214
KAHQ 241955Z AUTO 15013G17KT 10SM CLR 29/21 A2984 RMK AO2 T02900212
KAHQ 241935Z AUTO 15011G18KT 10SM CLR 29/21 A2983 RMK AO2 T02920208
KAHQ 241915Z AUTO 15010G14KT 10SM CLR 29/21 A2984 RMK AO2 T02900209
KAHQ 241855Z AUTO 14010KT 10SM CLR 29/21 A2985 RMK AO2 T02860211
KAHQ 241835Z AUTO 15008KT 10SM CLR 29/21 A2984 RMK AO2 T02920209
KAHQ 241815Z AUTO 14006KT 10SM CLR 29/21 A2985 RMK AO2 T02880208
KAHQ 241755Z AUTO 11004KT 10SM CLR 28/21 A2985 RMK AO2 T02840211 10285 20193
KAHQ 241735Z AUTO 12005KT 10SM SCT120 28/21 A2985 RMK AO2 T02780211
KAHQ 241715Z AUTO 10005KT 10SM SCT120 28/22 A2985 RMK AO2 T02750217
KAHQ 241655Z AUTO 00000KT 10SM CLR 26/21 A2985 RMK AO2 T02640210
KAHQ 241635Z AUTO 14003KT 10SM CLR 26/20 A2985 RMK AO2 T02610204
KAHQ 241615Z AUTO 00000KT 10SM CLR 25/20 A2986 RMK AO2 T02530195
KAHQ 241555Z AUTO 27005KT 10SM SCT095 25/20 A2986 RMK AO2 T02480199
KAHQ 241535Z AUTO 16005KT 10SM SCT095 25/20 A2986 RMK AO2 T02460201
KAHQ 241510Z AUTO 15005KT 10SM SCT110 24/19 A2985 RMK AO2 T02400192
KAHQ 241455Z AUTO 00000KT 10SM SCT100 SCT120 24/18 A2984 RMK AO2 T02350177
KAHQ 241435Z AUTO 00000KT 10SM SCT120 23/17 A2983 RMK AO2 T02320171
KAHQ 241415Z AUTO 02003KT 10SM SCT120 23/17 A2983 RMK AO2 T02260169
KAHQ 241355Z AUTO 00000KT 10SM SCT120 22/17 A2984 RMK AO2 T02200168
KAHQ 241335Z AUTO 00000KT 10SM SCT120 22/18 A2983 RMK AO2 T02180175
KAHQ 241315Z AUTO 33003KT 10SM CLR 22/18 A2983 RMK AO2 T02170175
KAHQ 241255Z AUTO 29004KT 10SM CLR 21/18 A2983 RMK AO2 T02130178
KAHQ 241235Z AUTO 00000KT 10SM CLR 21/17 A2982 RMK AO2 T02080173
KAHQ 241215Z AUTO 00000KT 10SM CLR 20/18 A2982 RMK AO2 T01980175
KAHQ 241155Z AUTO 00000KT 10SM CLR 19/17 A2982 RMK AO2 6//// 7//// T01910173 10239 20170
KAHQ 241135Z AUTO 00000KT 10SM CLR 19/16 A2982 RMK AO2 T01850156
KAHQ 241115Z AUTO 00000KT 10SM CLR 17/16 A2981 RMK AO2 T01730162
KAHQ 241055Z AUTO 00000KT 10SM CLR 17/16 A2979 RMK AO2 T01710156
KAHQ 241035Z AUTO 15005KT 10SM CLR 17/16 A2977 RMK AO2 T01730155
KAHQ 241015Z AUTO 13006KT 10SM CLR 17/16 A2975 RMK AO2 T01730160
KAHQ 240955Z AUTO 00000KT 10SM CLR 17/16 A2975 RMK AO2 T01720161
KAHQ 240935Z AUTO 14003KT 10SM CLR 18/16 A2975 RMK AO2 T01760161
KAHQ 240915Z AUTO 00000KT 10SM CLR 18/16 A2975 RMK AO2 T01770157
KAHQ 240855Z AUTO 26003KT 10SM CLR 18/15 A2974 RMK AO2 T01800153
KAHQ 240835Z AUTO 34005KT 10SM CLR 19/15 A2974 RMK AO2 T01920149
KAHQ 240815Z AUTO 36005KT 10SM CLR 19/15 A2975 RMK AO2 T01890152
KAHQ 240755Z AUTO 01005KT 10SM CLR 20/15 A2976 RMK AO2 T01990147
KAHQ 240735Z AUTO 00000KT 10SM CLR 22/13 A2976 RMK AO2 T02200133
KAHQ 240715Z AUTO 05005KT 10SM SCT110 22/14 A2976 RMK AO2 T02200139
KAHQ 240655Z AUTO 35004KT 10SM -RA SCT120 23/13 A2978 RMK AO2 T02290134
KAHQ 240635Z AUTO 28011G16KT 10SM SCT090 BKN110 23/16 A2980 RMK AO2 T02310163
KAHQ 240615Z AUTO 36006KT 10SM -DZ SCT100 OVC120 23/20 A2978 RMK AO2 T02260196
KAHQ 240555Z AUTO 20007KT 10SM -RA BKN120 22/20 A2979 RMK AO2 T02230204 10280 20215 402830156
KAHQ 240535Z AUTO 12006KT 10SM SCT120 22/21 A2979 RMK AO2 T02150208
KAHQ 240515Z AUTO 07003KT 10SM CLR 22/21 A2980 RMK AO2 T02170210
KAHQ 240455Z AUTO 00000KT 10SM SCT110 22/21 A2979 RMK AO2 T02170210
KAHQ 240435Z AUTO 14007KT 10SM -RA SCT039 SCT046 BKN120 22/21 A2977 RMK AO2 T02200211
KAHQ 240415Z AUTO 13003KT 10SM -RA SCT120 22/21 A2979 RMK AO2 T02210211
KAHQ 240355Z AUTO 13006KT 10SM -RA SCT120 22/21 A2978 RMK AO2 T02230211
KAHQ 240335Z AUTO 13007KT 10SM CLR 23/21 A2978 RMK AO2 T02260211
KAHQ 240315Z AUTO 12008KT 10SM CLR 23/21 A2977 RMK AO2 T02270212
KAHQ 240255Z AUTO 13010KT 10SM CLR 23/21 A2977 RMK AO2 T02310213
KAHQ 240235Z AUTO 12006KT 10SM -RA CLR 23/22 A2976 RMK AO2 T02300215
KAHQ 240215Z AUTO 11006KT 10SM CLR 24/21 A2975 RMK AO2 T02350211
KAHQ 240155Z AUTO 13004KT 10SM CLR 24/21 A2975 RMK AO2 T02440207
KAHQ 240135Z AUTO 14005KT 10SM CLR 25/21 A2974 RMK AO2 T02460210
KAHQ 240115Z AUTO 13005KT 10SM SCT100 25/21 A2973 RMK AO2 T02490212
KAHQ 240055Z AUTO 14006KT 10SM SCT100 26/21 A2973 RMK AO2 T02570206
KAHQ 240035Z AUTO 13005KT 10SM SCT110 27/21 A2973 RMK AO2 T02650206
KAHQ 240015Z AUTO 13007KT 10SM CLR 28/20 A2973 RMK AO2 T02790202
KAHQ 232355Z AUTO 13006KT 10SM CLR 28/20 A2972 RMK AO2 T02770197 10283 20230
KAHQ 232335Z AUTO 16004KT 10SM CLR 28/19 A2972 RMK AO2 T02820191
KAHQ 232315Z AUTO 18006KT 10SM CLR 28/19 A2973 RMK AO2 T02830191
KAHQ 232255Z AUTO 18008KT 10SM SCT050 28/19 A2973 RMK AO2 T02780192
KAHQ 232235Z AUTO 19007KT 10SM SCT038 SCT045 28/19 A2974 RMK AO2 T02750189
KAHQ 232215Z AUTO 16005KT 10SM SCT038 28/19 A2974 RMK AO2 T02750187
KAHQ 232155Z AUTO 16006KT 10SM SCT036 28/19 A2975 RMK AO2 T02760193